createdAt,value
2023-09-19T00:02:29.437Z,14.13
2023-09-19T00:05:25.379Z,11.57
2023-09-19T00:07:58.267Z,10.65
2023-09-19T00:10:41.487Z,10.57
2023-09-19T00:13:16.327Z,11.50
2023-09-19T00:15:50.797Z,9.88
2023-09-19T00:18:23.753Z,13.30
2023-09-19T00:21:03.724Z,11.80
2023-09-19T00:23:34.570Z,16.98
2023-09-19T00:26:11.784Z,16.02
2023-09-19T00:28:44.849Z,10.45
2023-09-19T00:31:42.244Z,13.38
2023-09-19T00:34:12.069Z,12.45
2023-09-19T00:36:53.948Z,13.68
2023-09-19T00:39:32.277Z,12.57
2023-09-19T00:42:09.299Z,12.00
2023-09-19T00:44:46.348Z,16.92
2023-09-19T00:47:21.584Z,11.60
2023-09-19T00:52:45.320Z,13.10
2023-09-19T00:55:31.516Z,11.80
2023-09-19T00:58:07.939Z,13.25
2023-09-19T01:03:33.346Z,11.57
2023-09-19T01:06:17.216Z,13.13
2023-09-19T01:08:50.463Z,14.15
2023-09-19T01:11:51.634Z,14.82
2023-09-19T01:14:32.969Z,16.63
2023-09-19T01:17:28.176Z,12.48
2023-09-19T01:20:32.286Z,11.82
2023-09-19T01:23:25.674Z,12.90
2023-09-19T01:25:56.220Z,12.25
2023-09-19T01:28:48.450Z,12.23
2023-09-19T01:31:28.299Z,11.98
2023-09-19T01:34:12.973Z,12.93
2023-09-19T01:36:46.567Z,14.30
2023-09-19T01:39:23.241Z,12.45
2023-09-19T01:42:21.180Z,14.55
2023-09-19T01:45:02.003Z,16.52
2023-09-19T01:48:08.687Z,18.92
2023-09-19T01:50:57.651Z,17.15
2023-09-19T01:57:38.759Z,14.23
2023-09-19T02:00:27.658Z,15.10
2023-09-19T02:03:05.096Z,15.13
2023-09-19T02:05:38.875Z,17.77
2023-09-19T02:08:07.308Z,15.75
2023-09-19T02:10:52.201Z,16.55
2023-09-19T02:13:44.850Z,14.30
2023-09-19T02:16:37.054Z,16.17
2023-09-19T02:22:03.413Z,20.00
2023-09-19T02:24:48.812Z,13.15
2023-09-19T02:27:26.530Z,19.92
2023-09-19T02:30:11.246Z,14.32
2023-09-19T02:32:53.687Z,13.27
2023-09-19T02:35:48.672Z,13.15
2023-09-19T02:38:25.954Z,15.30
2023-09-19T02:43:55.909Z,16.65
2023-09-19T02:46:53.558Z,16.25
2023-09-19T02:49:34.353Z,16.42
2023-09-19T02:52:06.013Z,17.88
2023-09-19T02:54:43.305Z,16.13
2023-09-19T02:57:20.137Z,16.77
2023-09-19T02:59:56.835Z,18.80
2023-09-19T03:02:29.496Z,17.13
2023-09-19T03:05:05.748Z,19.30
2023-09-19T03:07:35.711Z,18.95
2023-09-19T03:10:09.220Z,15.35
2023-09-19T03:12:44.829Z,17.80
2023-09-19T03:15:25.396Z,15.38
2023-09-19T03:18:16.376Z,17.60
2023-09-19T03:20:47.137Z,21.95
2023-09-19T03:23:24.482Z,17.88
2023-09-19T03:26:05.598Z,19.60
2023-09-19T03:28:37.176Z,18.52
2023-09-19T03:31:08.390Z,17.67
2023-09-19T03:33:40.659Z,17.85
2023-09-19T03:36:14.793Z,20.38
2023-09-19T03:38:54.068Z,18.77
2023-09-19T03:41:48.603Z,16.85
2023-09-19T03:44:26.456Z,19.60
2023-09-19T03:46:59.263Z,17.95
2023-09-19T03:49:36.700Z,16.40
2023-09-19T03:52:11.283Z,15.90
2023-09-19T03:54:52.772Z,16.77
2023-09-19T04:00:19.770Z,17.58
2023-09-19T04:03:29.717Z,14.75
2023-09-19T04:06:54.815Z,19.30
2023-09-19T04:10:13.802Z,17.55
2023-09-19T04:13:04.173Z,19.08
2023-09-19T04:15:56.073Z,17.77
2023-09-19T04:18:53.909Z,16.35
2023-09-19T04:22:07.937Z,18.50
2023-09-19T04:25:09.017Z,13.30
2023-09-19T04:28:40.062Z,14.50
2023-09-19T04:31:19.856Z,13.65
2023-09-19T04:34:05.386Z,13.00
2023-09-19T04:37:49.161Z,11.73
2023-09-19T04:40:32.221Z,12.90
2023-09-19T04:43:22.963Z,18.42
2023-09-19T04:46:01.728Z,21.63
2023-09-19T04:49:08.419Z,15.95
2023-09-19T04:51:54.206Z,19.17
2023-09-19T04:54:47.869Z,13.77
2023-09-19T04:58:00.506Z,17.13
2023-09-19T05:01:03.264Z,15.82
2023-09-19T05:03:44.430Z,22.40
2023-09-19T05:06:40.969Z,17.80
2023-09-19T05:09:29.878Z,16.48
2023-09-19T05:12:24.005Z,13.48
2023-09-19T05:15:50.723Z,15.85
2023-09-19T05:28:59.660Z,15.25
2023-09-19T05:32:00.068Z,19.20
2023-09-19T05:34:44.533Z,19.30
2023-09-19T05:38:16.005Z,14.88
2023-09-19T05:41:32.064Z,14.98
2023-09-19T05:44:27.288Z,14.02
2023-09-19T05:47:29.565Z,16.73
2023-09-19T06:01:05.428Z,13.77
2023-09-19T06:03:59.536Z,13.52
2023-09-19T06:06:59.587Z,12.75
2023-09-19T06:10:43.881Z,10.20
2023-09-19T06:13:50.118Z,11.15
2023-09-19T06:16:48.886Z,8.90
2023-09-19T06:19:30.380Z,8.18
2023-09-19T06:22:34.477Z,9.25
2023-09-19T06:26:03.841Z,8.95
2023-09-19T06:29:02.005Z,7.63
2023-09-19T06:31:47.224Z,8.77
2023-09-19T06:34:24.257Z,11.98
2023-09-19T06:37:26.283Z,9.73
2023-09-19T06:48:12.690Z,8.27
2023-09-19T06:51:06.323Z,7.03
2023-09-19T06:54:45.543Z,6.40
2023-09-19T06:57:50.170Z,7.55
2023-09-19T07:00:41.729Z,7.72
2023-09-19T07:04:25.197Z,5.57
2023-09-19T07:07:59.477Z,6.47
2023-09-19T07:11:37.059Z,5.38
2023-09-19T07:15:25.593Z,7.80
2023-09-19T07:18:22.490Z,9.38
2023-09-19T07:21:38.902Z,10.45
2023-09-19T07:24:21.253Z,8.57
2023-09-19T07:27:07.057Z,8.73
2023-09-19T07:30:30.625Z,5.05
2023-09-19T07:33:14.177Z,7.05
2023-09-19T07:35:52.365Z,8.02
2023-09-19T07:39:27.722Z,9.57
2023-09-19T07:42:59.038Z,6.05
2023-09-19T07:46:18.240Z,8.95
2023-09-19T07:49:03.466Z,6.72
2023-09-19T07:55:21.171Z,8.63
2023-09-19T07:58:23.975Z,5.10
2023-09-19T08:12:48.811Z,3.95
2023-09-19T08:16:54.916Z,5.55
2023-09-19T08:24:28.310Z,7.22
2023-09-19T08:27:08.065Z,5.47
2023-09-19T08:31:38.862Z,7.30
2023-09-19T08:34:59.416Z,10.82
2023-09-19T08:38:29.044Z,8.40
2023-09-19T08:41:49.155Z,4.00
2023-09-19T08:44:46.230Z,5.95
2023-09-19T08:48:36.583Z,4.88
2023-09-19T08:51:48.407Z,7.78
2023-09-19T08:54:45.511Z,6.13
2023-09-19T08:58:29.802Z,6.05
2023-09-19T09:05:51.746Z,6.32
2023-09-19T09:09:13.464Z,5.80
2023-09-19T09:12:23.706Z,6.93
2023-09-19T09:15:57.304Z,4.30
2023-09-19T09:20:17.281Z,4.55
2023-09-19T09:24:26.772Z,4.43
2023-09-19T09:31:42.493Z,6.35
2023-09-19T10:05:45.488Z,8.25
2023-09-19T10:40:38.430Z,4.32
2023-09-19T10:56:25.911Z,3.90
2023-09-19T11:12:12.402Z,3.38
2023-09-19T11:16:18.656Z,5.78
2023-09-19T11:23:57.220Z,5.05
2023-09-19T11:44:18.881Z,3.80
2023-09-19T11:48:09.665Z,4.40
2023-09-19T11:51:14.642Z,2.65
2023-09-19T11:54:30.703Z,3.38
2023-09-19T11:58:05.309Z,3.75
2023-09-19T12:09:57.454Z,5.53
2023-09-19T12:47:52.472Z,8.52
2023-09-19T13:13:51.059Z,6.95
2023-09-19T13:21:55.863Z,4.47
2023-09-19T13:29:00.548Z,4.85
2023-09-19T14:16:01.047Z,4.68
2023-09-19T14:22:20.499Z,4.55
2023-09-19T14:25:46.675Z,4.32
2023-09-19T14:29:27.697Z,4.88
2023-09-19T14:32:47.197Z,5.25
2023-09-19T14:39:36.518Z,2.92
2023-09-19T15:14:00.544Z,2.90
2023-09-19T15:16:52.938Z,5.43
2023-09-19T15:19:44.858Z,4.15
2023-09-19T15:23:32.101Z,6.03
2023-09-19T15:27:08.536Z,4.32
2023-09-19T15:29:44.021Z,3.92
2023-09-19T15:45:15.176Z,3.92
2023-09-19T16:08:47.954Z,3.80
2023-09-19T16:16:10.065Z,6.40
2023-09-19T16:19:43.928Z,4.32
2023-09-19T16:22:58.531Z,7.95
2023-09-19T16:26:10.389Z,5.03
2023-09-19T16:36:25.591Z,7.63
2023-09-19T16:47:15.859Z,6.90
2023-09-19T16:54:26.205Z,5.97
2023-09-19T16:57:50.493Z,7.00
2023-09-19T17:00:47.844Z,8.85
2023-09-19T17:04:02.139Z,5.47
2023-09-19T17:10:49.912Z,8.07
2023-09-19T17:18:43.106Z,9.90
2023-09-19T17:22:33.466Z,5.93
2023-09-19T17:28:48.903Z,5.22
2023-09-19T17:44:14.496Z,4.65
2023-09-19T17:48:14.385Z,7.88
2023-09-19T18:03:53.780Z,4.68
2023-09-19T18:06:29.961Z,4.95
2023-09-19T18:09:23.302Z,5.95
2023-09-19T18:13:12.338Z,4.85
2023-09-19T18:16:39.249Z,7.93
2023-09-19T18:24:32.356Z,8.13
2023-09-19T18:48:20.923Z,5.55
2023-09-19T19:00:33.095Z,10.30
2023-09-19T19:08:32.813Z,5.82
2023-09-19T19:15:43.060Z,6.07
2023-09-19T19:19:40.791Z,6.47
2023-09-19T19:22:41.850Z,8.93
2023-09-19T19:30:07.716Z,5.55
2023-09-19T19:37:27.950Z,6.97
2023-09-19T19:52:12.628Z,6.75
2023-09-19T20:07:58.111Z,10.88
2023-09-19T20:10:41.924Z,6.75
2023-09-19T20:14:07.081Z,5.72
2023-09-19T20:16:53.387Z,6.70
2023-09-19T20:20:22.211Z,5.72
2023-09-19T20:26:14.709Z,6.00
2023-09-19T20:33:30.985Z,5.95
2023-09-19T20:36:41.239Z,4.68
2023-09-19T20:40:54.227Z,7.07
2023-09-19T20:46:44.182Z,5.28
2023-09-19T20:49:45.672Z,8.63
2023-09-19T20:52:34.111Z,7.43
2023-09-19T20:56:08.601Z,6.55
2023-09-19T21:01:48.607Z,7.55
2023-09-19T21:04:28.965Z,4.88
2023-09-19T21:07:13.946Z,6.35
2023-09-19T21:10:01.057Z,6.40
2023-09-19T21:12:40.855Z,6.40
2023-09-19T21:15:14.557Z,4.60
2023-09-19T21:17:49.231Z,6.38
2023-09-19T21:20:28.694Z,4.80
2023-09-19T21:23:23.202Z,7.00
2023-09-19T21:26:03.425Z,10.52
2023-09-19T21:29:02.947Z,7.78
2023-09-19T21:32:09.565Z,5.43
2023-09-19T21:35:11.458Z,4.88
2023-09-19T21:41:33.854Z,4.63
2023-09-19T22:03:40.362Z,5.05
2023-09-19T22:09:53.515Z,5.45
2023-09-19T22:12:34.243Z,4.35
2023-09-19T22:15:13.464Z,5.75
2023-09-19T22:20:46.111Z,6.93
2023-09-19T22:23:18.221Z,5.05
2023-09-19T22:25:55.240Z,4.95
2023-09-19T22:28:42.662Z,5.35
2023-09-19T22:31:30.528Z,5.32
2023-09-19T22:34:06.465Z,5.68
2023-09-19T22:36:50.759Z,4.90
2023-09-19T22:39:56.273Z,10.80
2023-09-19T22:45:32.984Z,6.60
2023-09-19T22:48:13.823Z,5.53
2023-09-19T22:51:03.924Z,6.20
2023-09-19T22:53:45.147Z,6.18
2023-09-19T22:56:26.384Z,5.78
2023-09-19T22:59:23.944Z,5.05
2023-09-19T23:02:07.601Z,6.32
2023-09-19T23:07:43.641Z,4.57
2023-09-19T23:10:23.711Z,6.25
2023-09-19T23:13:07.271Z,5.25
2023-09-19T23:15:46.956Z,4.15
2023-09-19T23:18:23.413Z,5.20
2023-09-19T23:21:07.471Z,5.75
2023-09-19T23:23:48.743Z,4.90
2023-09-19T23:26:41.036Z,6.68
2023-09-19T23:29:21.254Z,5.93
2023-09-19T23:32:08.326Z,5.90
2023-09-19T23:34:57.584Z,6.32
2023-09-19T23:37:40.759Z,6.80
2023-09-19T23:40:15.447Z,8.07
2023-09-19T23:43:00.911Z,4.93
2023-09-19T23:45:51.439Z,8.50
2023-09-19T23:48:37.527Z,6.75
2023-09-19T23:51:14.138Z,7.22
2023-09-19T23:53:49.918Z,8.52
2023-09-19T23:56:23.944Z,5.60
2023-09-19T23:58:57.525Z,5.65
